Time;durP1;ratioP1;P1;durP2;ratioP2;P2;SDS_P1;SDS_P2;PMS_P1;PMS_P2;Temp;Humidity;BMP_temperature;BMP_pressure;BME280_temperature;BME280_humidity;BME280_pressure;Samples;Min_cycle;Max_cycle;Signal;HPM_P1;HPM_P2
2022/02/13 00:01:10;;;;;;;;;;;;;;;13.39;49.52;102143.63;4949631;29;19922;-81
2022/02/13 00:03:55;;;;;;;;;;;;;;;13.36;49.81;102144.22;4953046;29;19937;-81
2022/02/13 00:06:39;;;;;;;;;;;;;;;13.35;49.68;102137.16;4952103;29;19918;-81
2022/02/13 00:09:23;;;;;;;;;;;;;;;13.26;43.71;102137.00;4950078;28;20470;-83
2022/02/13 00:12:08;;;;;;;;;;;;;;;13.23;45.41;102136.78;4954021;28;19922;-82
2022/02/13 00:14:53;;;;;;;;;;;;;;;13.12;41.15;102127.13;4948255;28;19922;-82
2022/02/13 00:17:38;;;;;;;;;;;;;;;13.13;43.85;102131.50;4953073;28;19930;-81
2022/02/13 00:20:24;;;;;;;;;;;;;;;13.03;40.41;102120.69;4952786;28;19922;-81
2022/02/13 00:23:10;;;;;;;;;;;;;;;13.11;47.92;102125.47;4953298;28;19918;-82
2022/02/13 00:25:54;;;;;;;;;;;;;;;13.14;49.94;102119.47;4953329;28;19922;-82
2022/02/13 00:28:38;;;;;;;;;;;;;;;13.18;50.42;102110.38;4953058;28;19945;-82
2022/02/13 00:31:23;;;;;;;;;;;;;;;13.19;50.93;102111.19;4953484;29;19919;-82
2022/02/13 00:34:08;;;;;;;;;;;;;;;13.21;51.18;102111.69;4952225;28;19922;-81
2022/02/13 00:36:53;;;;;;;;;;;;;;;13.19;51.40;102103.00;4952364;28;20531;-82
2022/02/13 00:39:38;;;;;;;;;;;;;;;13.19;51.72;102103.00;4953054;28;20425;-82
2022/02/13 00:42:23;;;;;;;;;;;;;;;13.17;51.28;102097.00;4953383;28;19918;-81
2022/02/13 00:45:11;;;;;;;;;;;;;;;13.23;52.00;102099.34;4952590;28;19918;-83
2022/02/13 00:47:55;;;;;;;;;;;;;;;13.25;51.91;102093.59;4952368;28;19918;-80
2022/02/13 00:50:40;;;;;;;;;;;;;;;13.27;51.99;102091.38;4953956;28;19918;-81
2022/02/13 00:53:24;;;;;;;;;;;;;;;13.27;51.67;102096.81;4952715;28;19918;-82
2022/02/13 00:56:09;;;;;;;;;;;;;;;13.27;52.10;102094.09;4952866;29;19922;-82
2022/02/13 00:58:53;;;;;;;;;;;;;;;13.19;47.28;102090.16;4954890;28;20351;-81
2022/02/13 01:01:37;;;;;;;;;;;;;;;13.24;50.80;102091.97;4953268;28;19922;-82
2022/02/13 01:04:22;;;;;;;;;;;;;;;13.21;51.35;102087.91;4953167;28;19918;-81
2022/02/13 01:07:06;;;;;;;;;;;;;;;13.23;51.74;102090.34;4953037;28;19949;-81
2022/02/13 01:09:51;;;;;;;;;;;;;;;13.23;51.83;102080.22;4952879;29;20283;-82
2022/02/13 01:12:36;;;;;;;;;;;;;;;13.26;52.01;102087.00;4956130;28;19952;-81
2022/02/13 01:15:21;;;;;;;;;;;;;;;13.26;52.49;102084.28;4953229;28;19918;-81
2022/02/13 01:18:05;;;;;;;;;;;;;;;13.24;52.80;102079.13;4952836;28;20609;-81
2022/02/13 01:20:51;;;;;;;;;;;;;;;13.24;52.76;102081.88;4952270;28;19923;-81
2022/02/13 01:23:36;;;;;;;;;;;;;;;13.23;52.89;102084.88;4932943;29;19918;-82
2022/02/13 01:26:21;;;;;;;;;;;;;;;13.24;52.89;102081.06;4933107;29;19938;-81
2022/02/13 01:29:06;;;;;;;;;;;;;;;13.21;52.67;102085.19;4931722;29;19919;-81
2022/02/13 01:31:51;;;;;;;;;;;;;;;13.17;52.73;102077.88;4938272;29;19918;-82
2022/02/13 01:34:36;;;;;;;;;;;;;;;13.13;53.02;102080.41;4951208;28;19918;-82
2022/02/13 01:37:20;;;;;;;;;;;;;;;13.10;53.08;102082.91;4952311;28;19918;-82
2022/02/13 01:40:06;;;;;;;;;;;;;;;13.10;53.43;102072.78;4952311;28;20395;-82
2022/02/13 01:42:50;;;;;;;;;;;;;;;13.07;53.08;102080.75;4952177;28;19918;-81
2022/02/13 01:45:34;;;;;;;;;;;;;;;13.01;51.36;102080.03;4950925;28;19918;-82
2022/02/13 01:48:19;;;;;;;;;;;;;;;12.97;52.17;102070.00;4954375;28;20311;-81
2022/02/13 01:51:04;;;;;;;;;;;;;;;12.97;52.69;102072.72;4951863;28;19914;-82
2022/02/13 01:53:49;;;;;;;;;;;;;;;13.00;53.57;102069.41;4951380;28;19922;-81
2022/02/13 01:56:34;;;;;;;;;;;;;;;13.05;53.91;102069.34;4951842;28;19919;-81
2022/02/13 01:59:19;;;;;;;;;;;;;;;13.03;53.52;102066.88;4952733;28;19922;-81
2022/02/13 02:02:04;;;;;;;;;;;;;;;13.00;52.75;102058.50;4950360;28;19918;-81
2022/02/13 02:04:52;;;;;;;;;;;;;;;12.94;53.07;102060.50;4931472;29;19918;-81
2022/02/13 02:07:37;;;;;;;;;;;;;;;12.91;53.51;102054.78;4931700;29;19922;-81
2022/02/13 02:10:22;;;;;;;;;;;;;;;12.92;54.03;102050.97;4931681;29;19918;-82
2022/02/13 02:13:06;;;;;;;;;;;;;;;12.90;54.17;102045.00;4938666;29;19918;-81
2022/02/13 02:15:52;;;;;;;;;;;;;;;12.86;53.28;102042.03;4950363;28;19919;-81
2022/02/13 02:18:36;;;;;;;;;;;;;;;12.83;53.59;102042.66;4950068;28;19918;-81
2022/02/13 02:21:21;;;;;;;;;;;;;;;12.75;52.06;102044.13;4950502;28;20379;-81
2022/02/13 02:24:08;;;;;;;;;;;;;;;12.71;51.87;102045.84;4937422;29;19919;-80
2022/02/13 02:26:53;;;;;;;;;;;;;;;12.66;51.46;102043.19;4949745;28;19915;-81
2022/02/13 02:29:38;;;;;;;;;;;;;;;12.63;51.84;102037.50;4968647;28;19918;-81
2022/02/13 02:32:22;;;;;;;;;;;;;;;12.65;53.94;102043.47;4954209;28;19918;-81
2022/02/13 02:35:07;;;;;;;;;;;;;;;12.60;52.34;102035.34;4953602;29;19918;-81
2022/02/13 02:37:51;;;;;;;;;;;;;;;12.50;44.26;102021.88;4953990;28;19919;-81
2022/02/13 02:40:36;;;;;;;;;;;;;;;12.42;40.71;102026.91;4952652;28;19922;-80
2022/02/13 02:43:20;;;;;;;;;;;;;;;12.45;50.20;102030.94;4954567;28;19918;-81
2022/02/13 02:46:05;;;;;;;;;;;;;;;12.47;52.68;102028.75;4954625;28;19918;-81
2022/02/13 02:48:50;;;;;;;;;;;;;;;12.46;52.03;102021.66;4956952;28;19918;-81
2022/02/13 02:51:34;;;;;;;;;;;;;;;12.32;39.90;102012.59;4954337;29;19919;-81
2022/02/13 02:54:18;;;;;;;;;;;;;;;12.27;42.57;102013.50;4953212;28;19918;-81
2022/02/13 02:57:03;;;;;;;;;;;;;;;12.31;51.40;102008.25;4953898;29;19918;-81
2022/02/13 02:59:48;;;;;;;;;;;;;;;12.25;48.03;102014.88;4956040;28;19914;-82
2022/02/13 03:02:33;;;;;;;;;;;;;;;12.25;51.53;102010.22;4956766;28;19914;-80
2022/02/13 03:05:17;;;;;;;;;;;;;;;12.23;51.43;102019.81;4938011;29;19914;-79
2022/02/13 03:08:02;;;;;;;;;;;;;;;12.19;50.15;102002.44;4938485;29;19915;-80
2022/02/13 03:10:46;;;;;;;;;;;;;;;12.19;53.53;102011.41;4951778;29;19914;-79
2022/02/13 03:13:31;;;;;;;;;;;;;;;12.19;54.47;102014.13;4958157;28;20383;-79
2022/02/13 03:16:16;;;;;;;;;;;;;;;12.24;55.29;102010.53;4957464;29;19914;-80
2022/02/13 03:19:00;;;;;;;;;;;;;;;12.29;55.91;102015.94;4957421;28;19914;-80
2022/02/13 03:21:44;;;;;;;;;;;;;;;12.28;55.86;102008.84;4957290;28;19918;-79
2022/02/13 03:24:29;;;;;;;;;;;;;;;12.26;55.66;102011.88;4959219;28;19915;-80
2022/02/13 03:27:14;;;;;;;;;;;;;;;12.21;53.48;102014.66;4957591;28;19914;-80
2022/02/13 03:29:58;;;;;;;;;;;;;;;12.15;51.02;102012.28;4957475;29;19918;-80
2022/02/13 03:32:43;;;;;;;;;;;;;;;12.12;53.51;102010.97;4957427;28;19915;-80
2022/02/13 03:35:27;;;;;;;;;;;;;;;12.10;53.82;102015.09;4957199;28;19914;-80
2022/02/13 03:38:11;;;;;;;;;;;;;;;12.01;45.17;102009.47;4957653;28;19915;-80
2022/02/13 03:40:57;;;;;;;;;;;;;;;11.96;44.01;102007.63;4958281;28;19918;-80
2022/02/13 03:43:41;;;;;;;;;;;;;;;11.94;46.45;102004.38;4957776;28;19914;-80
2022/02/13 03:46:26;;;;;;;;;;;;;;;11.91;45.55;102004.16;4957805;28;19914;-79
2022/02/13 03:49:10;;;;;;;;;;;;;;;11.86;44.54;102006.97;4957623;28;19918;-80
2022/02/13 03:51:55;;;;;;;;;;;;;;;11.75;40.47;102011.72;4960269;28;19914;-79
2022/02/13 03:54:39;;;;;;;;;;;;;;;11.74;44.76;102015.53;4959665;28;19918;-79
2022/02/13 03:57:23;;;;;;;;;;;;;;;11.71;44.93;102010.66;4961120;29;19914;-80
2022/02/13 04:00:09;;;;;;;;;;;;;;;11.73;50.66;102011.22;4960689;28;19915;-80
2022/02/13 04:02:56;;;;;;;;;;;;;;;11.73;51.76;102008.50;4960424;29;20371;-79
2022/02/13 04:05:40;;;;;;;;;;;;;;;11.76;54.48;102004.34;4960194;29;19914;-80
2022/02/13 04:08:25;;;;;;;;;;;;;;;11.76;55.19;102007.09;4962959;28;19914;-80
2022/02/13 04:11:09;;;;;;;;;;;;;;;11.74;56.78;102007.38;4961294;28;19914;-79
2022/02/13 04:13:54;;;;;;;;;;;;;;;11.73;56.51;102010.41;4960451;28;19914;-80
2022/02/13 04:16:38;;;;;;;;;;;;;;;11.72;56.68;102001.38;4961267;28;19914;-79
2022/02/13 04:19:23;;;;;;;;;;;;;;;11.71;56.18;102002.47;4960937;28;20391;-79
2022/02/13 04:22:07;;;;;;;;;;;;;;;11.71;56.15;102002.47;4960505;29;19919;-79
2022/02/13 04:24:52;;;;;;;;;;;;;;;11.69;55.30;102001.13;4959878;28;19914;-78
2022/02/13 04:27:36;;;;;;;;;;;;;;;11.65;55.86;102002.81;4960207;28;19914;-78
2022/02/13 04:30:22;;;;;;;;;;;;;;;11.64;57.18;102002.00;4960229;28;19914;-79
2022/02/13 04:33:07;;;;;;;;;;;;;;;11.64;57.95;102003.91;4960377;29;19915;-79
2022/02/13 04:35:52;;;;;;;;;;;;;;;11.65;57.86;102003.63;4959643;28;19914;-79
2022/02/13 04:38:36;;;;;;;;;;;;;;;11.65;58.18;102000.09;4960442;28;20379;-79
2022/02/13 04:41:21;;;;;;;;;;;;;;;11.69;57.67;101996.50;4959896;28;19922;-79
2022/02/13 04:44:05;;;;;;;;;;;;;;;11.67;58.35;101997.91;4959360;28;19915;-78
2022/02/13 04:46:50;;;;;;;;;;;;;;;11.64;57.30;101998.47;4940756;29;19914;-79
2022/02/13 04:49:34;;;;;;;;;;;;;;;11.63;58.29;101994.94;4941016;29;19914;-78
2022/02/13 04:52:19;;;;;;;;;;;;;;;11.64;58.93;101991.09;4940933;29;20368;-79
2022/02/13 04:55:03;;;;;;;;;;;;;;;11.64;58.41;101991.09;4937750;29;19914;-79
2022/02/13 04:57:48;;;;;;;;;;;;;;;11.65;58.93;101990.00;4940169;29;19914;-79
2022/02/13 05:00:33;;;;;;;;;;;;;;;11.65;59.02;101990.00;4940308;29;19919;-78
2022/02/13 05:03:18;;;;;;;;;;;;;;;11.70;58.95;101986.41;4943098;28;19914;-78
2022/02/13 05:06:02;;;;;;;;;;;;;;;11.75;59.16;101987.19;4959440;28;19915;-79
2022/02/13 05:08:47;;;;;;;;;;;;;;;11.79;58.95;101974.59;4960193;28;19914;-78
2022/02/13 05:11:31;;;;;;;;;;;;;;;11.81;58.84;101975.13;4959233;28;19915;-78
2022/02/13 05:14:16;;;;;;;;;;;;;;;11.78;58.29;101978.44;4961461;28;19922;-79
2022/02/13 05:17:00;;;;;;;;;;;;;;;11.72;58.58;101982.31;4959686;29;19918;-79
2022/02/13 05:19:44;;;;;;;;;;;;;;;11.69;58.60;101974.69;4959646;29;19914;-79
2022/02/13 05:22:29;;;;;;;;;;;;;;;11.57;50.94;101974.31;4959557;28;20411;-79
2022/02/13 05:25:13;;;;;;;;;;;;;;;11.49;49.37;101973.03;4958728;29;20306;-78
2022/02/13 05:27:58;;;;;;;;;;;;;;;11.41;45.48;101970.97;4959314;28;19918;-79
2022/02/13 05:30:42;;;;;;;;;;;;;;;11.39;50.63;101981.31;4959336;28;20397;-79
2022/02/13 05:33:26;;;;;;;;;;;;;;;11.40;53.51;101982.13;4959449;28;19914;-79
2022/02/13 05:36:11;;;;;;;;;;;;;;;11.41;56.64;101983.75;4959117;28;19914;-79
2022/02/13 05:38:56;;;;;;;;;;;;;;;11.39;56.89;101977.78;4959555;28;19914;-78
2022/02/13 05:41:41;;;;;;;;;;;;;;;11.35;57.04;101974.03;4961714;28;20309;-78
2022/02/13 05:44:26;;;;;;;;;;;;;;;11.32;55.59;101975.44;4958195;28;19915;-79
2022/02/13 05:47:11;;;;;;;;;;;;;;;11.32;56.28;101963.72;4959629;28;19915;-79
2022/02/13 05:49:56;;;;;;;;;;;;;;;11.31;57.01;101970.25;4963604;28;19914;-79
2022/02/13 05:52:40;;;;;;;;;;;;;;;11.28;55.75;101977.09;4958933;28;19918;-79
2022/02/13 05:55:24;;;;;;;;;;;;;;;11.27;57.43;101972.75;4957851;29;20295;-79
2022/02/13 05:58:09;;;;;;;;;;;;;;;11.25;58.37;101974.94;4958695;28;19914;-79
2022/02/13 06:00:53;;;;;;;;;;;;;;;11.23;57.02;101976.31;4960328;28;20295;-79
2022/02/13 06:03:38;;;;;;;;;;;;;;;11.22;57.48;101980.16;4957992;28;19918;-77
2022/02/13 06:06:22;;;;;;;;;;;;;;;11.21;57.02;101979.34;4957703;28;19914;-78
2022/02/13 06:09:07;;;;;;;;;;;;;;;11.19;57.33;101987.00;4964440;28;19915;-78
2022/02/13 06:11:51;;;;;;;;;;;;;;;11.15;55.71;101986.75;4939197;29;19915;-80
2022/02/13 06:14:36;;;;;;;;;;;;;;;11.15;56.16;101983.22;4938576;29;20300;-79
2022/02/13 06:17:20;;;;;;;;;;;;;;;11.14;55.13;101984.31;4957064;29;19922;-79
2022/02/13 06:20:05;;;;;;;;;;;;;;;11.11;55.49;101985.72;4959292;28;19915;-79
2022/02/13 06:22:50;;;;;;;;;;;;;;;11.12;57.98;101986.53;4958727;28;19923;-79
2022/02/13 06:25:35;;;;;;;;;;;;;;;11.11;58.71;101977.56;4958073;28;19914;-79
2022/02/13 06:28:19;;;;;;;;;;;;;;;11.09;58.52;101982.47;4958129;28;19914;-79
2022/02/13 06:31:04;;;;;;;;;;;;;;;11.10;59.43;101984.09;4958473;28;19915;-79
2022/02/13 06:33:48;;;;;;;;;;;;;;;11.07;58.76;101987.38;4957023;28;20291;-79
2022/02/13 06:36:32;;;;;;;;;;;;;;;11.06;58.21;101987.69;4957671;29;19915;-80
2022/02/13 06:39:17;;;;;;;;;;;;;;;11.03;58.22;101986.31;4958174;29;19919;-78
2022/02/13 06:42:02;;;;;;;;;;;;;;;11.02;58.73;101987.41;4957892;28;19918;-79
2022/02/13 06:44:46;;;;;;;;;;;;;;;11.02;59.55;101981.97;4957300;28;19915;-79
2022/02/13 06:47:31;;;;;;;;;;;;;;;11.06;60.09;101985.75;4957550;28;19942;-79
2022/02/13 06:50:15;;;;;;;;;;;;;;;11.07;60.23;101981.91;4970700;28;20379;-80
2022/02/13 06:53:00;;;;;;;;;;;;;;;11.05;60.56;101978.69;4973712;28;19914;-79
2022/02/13 06:55:45;;;;;;;;;;;;;;;11.03;60.37;101975.44;4976344;28;19913;-79
2022/02/13 06:58:29;;;;;;;;;;;;;;;11.00;60.33;101967.84;4960501;28;19914;-80
2022/02/13 07:01:14;;;;;;;;;;;;;;;10.97;57.74;101976.56;4966852;28;19918;-80
2022/02/13 07:03:59;;;;;;;;;;;;;;;10.96;59.40;101974.16;4967307;28;19918;-79
2022/02/13 07:06:43;;;;;;;;;;;;;;;10.98;60.42;101975.47;4960256;28;19914;-78
2022/02/13 07:09:28;;;;;;;;;;;;;;;6.99;37.70;101967.88;4960959;29;19914;-82
2022/02/13 07:12:13;;;;;;;;;;;;;;;5.63;41.09;101970.06;4963983;29;19914;-82
2022/02/13 07:14:58;;;;;;;;;;;;;;;4.96;41.84;101970.22;4961741;28;19915;-82
2022/02/13 07:17:42;;;;;;;;;;;;;;;4.81;45.36;101967.28;4961903;28;19915;-82
2022/02/13 07:20:27;;;;;;;;;;;;;;;4.28;43.53;101979.31;4961126;28;20360;-82
2022/02/13 07:23:11;;;;;;;;;;;;;;;4.28;44.04;101974.75;4962746;29;20318;-82
2022/02/13 07:25:58;;;;;;;;;;;;;;;4.42;43.55;101982.53;4960821;28;19926;-82
2022/02/13 07:29:01;;;;;;;;;;;;;;;4.12;44.35;101977.41;4961695;29;19914;-81
2022/02/13 07:31:46;;;;;;;;;;;;;;;4.15;45.09;101985.03;4961404;28;20275;-81
2022/02/13 07:34:31;;;;;;;;;;;;;;;4.39;46.71;101988.41;4960845;28;19918;-82
2022/02/13 07:37:15;;;;;;;;;;;;;;;4.20;45.52;101983.25;4960767;29;20387;-82
2022/02/13 07:40:00;;;;;;;;;;;;;;;4.42;45.17;101985.25;4958213;28;19915;-82
2022/02/13 07:42:45;;;;;;;;;;;;;;;4.35;45.63;101995.34;4960964;28;19919;-81
2022/02/13 07:45:29;;;;;;;;;;;;;;;4.39;45.62;101991.91;4958993;29;20411;-81
2022/02/13 07:48:14;;;;;;;;;;;;;;;4.66;45.36;101989.41;4959819;28;20307;-81
2022/02/13 07:50:59;;;;;;;;;;;;;;;4.60;45.43;101998.47;4964605;28;20391;-81
2022/02/13 07:53:45;;;;;;;;;;;;;;;4.45;46.27;101995.50;4960875;28;19914;-81
2022/02/13 07:56:30;;;;;;;;;;;;;;;4.87;44.77;101987.88;4958884;28;19915;-81
2022/02/13 07:59:14;;;;;;;;;;;;;;;4.71;45.12;101994.88;4964221;28;20401;-81
2022/02/13 08:02:00;;;;;;;;;;;;;;;4.94;45.01;101993.88;4960343;29;20387;-81
2022/02/13 08:04:44;;;;;;;;;;;;;;;4.99;45.44;101989.41;4960202;29;20299;-81
2022/02/13 08:07:29;;;;;;;;;;;;;;;5.21;44.22;101997.53;4960188;28;19915;-81
2022/02/13 08:10:14;;;;;;;;;;;;;;;5.39;44.74;101993.72;4962869;28;19914;-82
2022/02/13 08:12:59;;;;;;;;;;;;;;;5.62;43.56;101996.22;4961142;28;19915;-82
2022/02/13 08:15:43;;;;;;;;;;;;;;;5.68;43.54;101994.41;4960740;28;19915;-81
2022/02/13 08:18:28;;;;;;;;;;;;;;;6.25;43.09;101994.78;4961618;28;20386;-82
2022/02/13 08:21:13;;;;;;;;;;;;;;;6.17;41.19;101989.84;4960917;28;19918;-81
2022/02/13 08:23:57;;;;;;;;;;;;;;;6.45;41.32;101992.28;4961325;28;19914;-81
2022/02/13 08:26:42;;;;;;;;;;;;;;;6.76;40.47;101994.19;4960987;29;19914;-81
2022/02/13 08:29:27;;;;;;;;;;;;;;;7.01;39.81;101987.34;4958435;28;19915;-81
2022/02/13 08:32:12;;;;;;;;;;;;;;;7.25;39.28;101991.28;4956933;29;20302;-81
2022/02/13 08:34:56;;;;;;;;;;;;;;;7.37;38.61;101997.31;4955219;28;19914;-82
2022/02/13 08:37:41;;;;;;;;;;;;;;;7.18;39.26;101998.81;4962807;28;19915;-82
2022/02/13 08:40:27;;;;;;;;;;;;;;;7.15;39.55;101999.34;4963756;28;19915;-81
2022/02/13 08:43:12;;;;;;;;;;;;;;;7.56;39.03;102003.09;4967524;28;19919;-82
2022/02/13 08:45:57;;;;;;;;;;;;;;;7.43;38.57;102007.09;4965141;28;19914;-81
2022/02/13 08:48:43;;;;;;;;;;;;;;;7.27;38.82;102002.66;4965508;28;19914;-81
2022/02/13 08:51:28;;;;;;;;;;;;;;;7.41;38.48;102005.72;4952481;28;20291;-81
2022/02/13 08:54:13;;;;;;;;;;;;;;;7.66;38.44;101998.56;4963792;29;19914;-81
2022/02/13 08:56:57;;;;;;;;;;;;;;;7.80;38.46;101996.16;4966150;28;19914;-82
2022/02/13 08:59:42;;;;;;;;;;;;;;;8.11;38.04;102000.59;4956319;28;19915;-81
2022/02/13 09:02:26;;;;;;;;;;;;;;;8.12;38.57;101994.09;4965023;28;19918;-82
2022/02/13 09:05:10;;;;;;;;;;;;;;;8.39;38.76;101998.50;4971548;28;19918;-81
2022/02/13 09:07:55;;;;;;;;;;;;;;;8.56;37.50;101994.47;4970710;28;19914;-81
2022/02/13 09:10:40;;;;;;;;;;;;;;;8.45;37.89;101998.25;4954979;28;19914;-82
2022/02/13 09:13:24;;;;;;;;;;;;;;;8.30;37.84;101994.69;4946428;29;20375;-81
2022/02/13 09:16:08;;;;;;;;;;;;;;;8.36;37.69;101999.88;4957065;28;19914;-85
2022/02/13 09:18:53;;;;;;;;;;;;;;;8.98;49.75;101996.91;4952911;28;19918;-79
2022/02/13 09:21:37;;;;;;;;;;;;;;;9.88;47.08;102002.34;4967822;28;19923;-82
2022/02/13 09:24:22;;;;;;;;;;;;;;;10.36;45.09;101994.50;4966058;28;19922;-81
2022/02/13 09:27:07;;;;;;;;;;;;;;;10.82;42.35;101992.25;4963250;29;20388;-80
2022/02/13 09:29:52;;;;;;;;;;;;;;;11.32;41.56;101988.22;4954813;28;19915;-79
2022/02/13 09:32:39;;;;;;;;;;;;;;;11.69;39.46;101984.78;4963268;28;19915;-79
2022/02/13 09:35:24;;;;;;;;;;;;;;;11.71;36.65;101988.84;4962432;28;19914;-79
2022/02/13 09:38:09;;;;;;;;;;;;;;;11.87;36.94;101989.50;4963199;28;19914;-83
2022/02/13 09:40:54;;;;;;;;;;;;;;;11.92;35.98;101998.44;4963221;29;19914;-79
2022/02/13 09:43:38;;;;;;;;;;;;;;;11.97;35.97;101989.38;4965438;29;19914;-79
2022/02/13 09:46:23;;;;;;;;;;;;;;;11.86;35.01;101985.97;4962886;28;19914;-80
2022/02/13 09:49:08;;;;;;;;;;;;;;;11.73;35.13;101983.97;4960818;28;19914;-78
2022/02/13 09:51:53;;;;;;;6.00;2.90;;;;;;;9.84;33.10;101983.09;4952008;28;20406;-82
2022/02/13 09:54:39;;;;;;;6.13;3.03;;;;;;;8.87;34.61;101975.47;4943087;28;20515;-83
2022/02/13 10:00:47;;;;;;;4.15;2.75;;;;;;;8.80;35.29;101983.88;4949921;28;20551;-83
2022/02/13 10:03:37;;;;;;;6.88;2.83;;;;;;;8.73;35.48;101971.69;4950400;28;20535;-82
2022/02/13 10:06:23;;;;;;;16.77;2.90;;;;;;;8.65;35.60;101980.38;4956819;28;20417;-83
2022/02/13 10:09:09;;;;;;;5.03;2.83;;;;;;;8.34;36.86;101980.34;4951962;28;20070;-83
2022/02/13 10:12:01;;;;;;;5.38;2.35;;;;;;;8.30;36.34;101968.41;4955553;28;20042;-83
2022/02/13 10:14:45;;;;;;;6.57;3.35;;;;;;;8.50;36.24;101968.44;4953460;28;20412;-83
2022/02/13 10:17:30;;;;;;;4.55;2.70;;;;;;;8.59;36.05;101966.81;4946102;28;20054;-83
2022/02/13 10:20:24;;;;;;;4.03;2.42;;;;;;;8.76;35.05;101966.53;4951915;29;20047;-83
2022/02/13 10:23:11;;;;;;;9.05;3.47;;;;;;;8.62;35.53;101962.75;4952291;28;20050;-83
2022/02/13 10:25:57;;;;;;;8.15;3.03;;;;;;;8.75;35.52;101959.47;4954244;28;20404;-78
2022/02/13 10:28:53;;;;;;;5.40;2.92;;;;;;;8.57;35.64;101971.69;4955455;28;20158;-78
2022/02/13 10:31:39;;;;;;;3.80;2.60;;;;;;;8.64;36.09;101957.03;4955401;28;20050;-78
2022/02/13 10:34:24;;;;;;;3.33;2.65;;;;;;;8.74;35.83;101967.88;4964375;28;20058;-78
2022/02/13 10:37:08;;;;;;;5.25;3.10;;;;;;;8.89;34.77;101960.53;4943880;28;20619;-79
2022/02/13 10:39:54;;;;;;;5.60;2.42;;;;;;;8.71;35.11;101952.16;4944209;29;20128;-78
2022/02/13 10:42:39;;;;;;;5.60;3.35;;;;;;;8.79;35.55;101947.00;4944623;28;20055;-78
2022/02/13 10:45:26;;;;;;;5.05;2.90;;;;;;;8.93;35.40;101941.84;4941855;29;20516;-79
2022/02/13 10:48:11;;;;;;;4.20;2.70;;;;;;;9.04;34.61;101940.72;4950210;28;20051;-81
2022/02/13 10:50:57;;;;;;;4.43;2.55;;;;;;;8.84;35.05;101938.03;4944950;28;20058;-81
2022/02/13 10:53:44;;;;;;;5.47;3.42;;;;;;;9.00;35.27;101934.22;4954657;28;20042;-81
2022/02/13 10:56:29;;;;;;;10.65;2.53;;;;;;;9.04;34.71;101932.56;4948643;28;20059;-79
2022/02/13 10:59:14;;;;;;;4.13;2.22;;;;;;;9.15;34.79;101927.94;4953481;28;20051;-79
2022/02/13 11:01:59;;;;;;;8.70;2.25;;;;;;;9.09;35.23;101915.50;4954408;28;20524;-78
2022/02/13 11:04:44;;;;;;;6.07;2.97;;;;;;;9.44;34.02;101910.75;4948199;28;20042;-82
2022/02/13 11:07:31;;;;;;;2.60;2.40;;;;;;;9.30;34.58;101904.28;4957507;28;20050;-81
2022/02/13 11:10:22;;;;;;;6.15;2.97;;;;;;;9.34;33.94;101899.94;4958182;28;20050;-81
2022/02/13 11:13:10;;;;;;;5.55;2.78;;;;;;;9.32;34.28;101888.53;4942371;29;20516;-81
2022/02/13 11:15:55;;;;;;;5.22;3.78;;;;;;;9.30;34.53;101885.28;4940199;29;20047;-81
2022/02/13 11:18:41;;;;;;;8.05;2.58;;;;;;;9.38;34.98;101892.88;4952415;29;20074;-81
2022/02/13 11:21:29;;;;;;;;;;;;;;;9.36;33.91;101881.47;4964554;28;20050;-82
2022/02/13 11:24:29;;;;;;;5.20;2.53;;;;;;;9.42;33.74;101872.22;4967146;28;20376;-81
2022/02/13 11:27:20;;;;;;;4.18;2.45;;;;;;;9.58;34.83;101870.22;4961930;28;20416;-80
2022/02/13 11:30:06;;;;;;;11.13;2.92;;;;;;;9.67;35.02;101859.56;4957356;28;20116;-82
2022/02/13 11:32:51;;;;;;;2.75;1.90;;;;;;;9.92;33.07;101843.09;4954146;28;20054;-80
2022/02/13 11:35:54;;;;;;;4.78;2.50;;;;;;;10.00;33.07;101844.44;4944012;29;20056;-80
2022/02/13 11:38:39;;;;;;;4.75;2.25;;;;;;;9.58;33.04;101842.25;4942514;29;20046;-80
2022/02/13 11:41:46;;;;;;;6.45;2.70;;;;;;;9.94;33.35;101827.34;4952097;28;20043;-80
2022/02/13 11:44:39;;;;;;;7.88;2.85;;;;;;;9.94;33.16;101829.25;4945301;29;20054;-80
2022/02/13 11:47:38;;;;;;;7.38;2.40;;;;;;;10.21;32.85;101824.97;4948160;28;20046;-80
2022/02/13 11:50:25;;;;;;;4.35;2.55;;;;;;;10.21;32.78;101824.97;4956012;29;20050;-79
2022/02/13 11:53:09;;;;;;;3.40;2.00;;;;;;;10.17;31.78;101821.19;4954783;29;20039;-80
2022/02/13 11:56:24;;;;;;;3.08;2.17;;;;;;;10.25;31.94;101811.63;4951582;29;20050;-80
2022/02/13 11:59:09;;;;;;;4.22;2.75;;;;;;;10.03;32.17;101800.38;4952778;29;20058;-80
2022/02/13 12:01:54;;;;;;;2.65;2.35;;;;;;;10.20;32.18;101792.66;4950991;29;20047;-80
2022/02/13 12:05:06;;;;;;;4.45;1.95;;;;;;;10.42;33.00;101797.59;4950385;28;20054;-79
2022/02/13 12:07:51;;;;;;;5.03;3.13;;;;;;;10.36;32.28;101791.41;4950328;28;20042;-78
2022/02/13 12:10:41;;;;;;;5.05;2.22;;;;;;;10.63;32.05;101786.22;4947213;28;20058;-79
2022/02/13 12:13:26;;;;;;;4.45;3.17;;;;;;;10.68;30.99;101780.72;4947897;29;20073;-77
2022/02/13 12:16:11;;;;;;;4.28;2.30;;;;;;;10.66;31.54;101773.94;4953450;28;20062;-77
2022/02/13 12:18:56;;;;;;;3.08;1.98;;;;;;;10.56;31.24;101776.78;4949731;28;20046;-77
2022/02/13 12:21:40;;;;;;;5.03;3.07;;;;;;;10.49;31.58;101766.25;4948207;29;20054;-78
2022/02/13 12:24:26;;;;;;;3.90;2.60;;;;;;;10.42;31.70;101764.94;4958552;28;20054;-77
2022/02/13 12:27:11;;;;;;;5.13;2.97;;;;;;;10.53;31.98;101761.03;4957133;28;20289;-77
2022/02/13 12:29:59;;;;;;;41.38;5.32;;;;;;;10.91;30.84;101759.22;4956912;29;20074;-77
2022/02/13 12:32:44;;;;;;;3.63;2.67;;;;;;;10.66;31.26;101755.72;4957028;29;20042;-77
2022/02/13 12:35:33;;;;;;;2.92;1.85;;;;;;;10.59;31.43;101751.72;4954427;29;20067;-78
2022/02/13 12:38:18;;;;;;;4.68;2.42;;;;;;;10.96;31.43;101748.28;4954101;29;20062;-77
2022/02/13 12:41:03;;;;;;;5.10;2.78;;;;;;;11.09;30.86;101739.38;4957173;28;20050;-77
2022/02/13 12:43:50;;;;;;;3.90;2.13;;;;;;;11.28;31.14;101739.38;4956009;28;20420;-77
2022/02/13 12:46:35;;;;;;;5.43;3.42;;;;;;;11.29;31.03;101733.66;4952126;29;20420;-78
2022/02/13 12:49:21;;;;;;;2.53;2.10;;;;;;;11.24;30.83;101722.81;4956779;29;20054;-78
2022/02/13 12:52:09;;;;;;;6.38;2.72;;;;;;;11.68;30.00;101716.97;4957474;28;20050;-77
2022/02/13 12:54:54;;;;;;;6.05;3.05;;;;;;;11.78;29.40;101726.94;4955654;28;20074;-77
2022/02/13 12:57:40;;;;;;;5.00;2.08;;;;;;;11.55;30.07;101717.72;4951060;29;20051;-77
2022/02/13 13:00:31;;;;;;;2.95;2.40;;;;;;;12.09;28.95;101717.09;4956680;28;20058;-77
2022/02/13 13:03:21;;;;;;;4.78;3.15;;;;;;;12.19;28.89;101711.44;4960162;28;20050;-77
2022/02/13 13:06:06;;;;;;;8.48;2.38;;;;;;;12.38;28.39;101703.19;4958966;28;20451;-78
2022/02/13 13:08:51;;;;;;;1.67;1.58;;;;;;;13.32;26.26;101699.81;4953751;28;20051;-78
2022/02/13 13:11:40;;;;;;;2.93;1.90;;;;;;;13.46;26.11;101684.97;4960588;28;20054;-78
2022/02/13 13:14:25;;;;;;;3.63;2.42;;;;;;;15.69;23.19;101690.31;4960233;28;20527;-79
2022/02/13 13:17:10;;;;;;;;;;;;;;;21.23;18.02;101696.19;4960902;29;20054;-79
2022/02/13 13:19:54;;;;;;;4.22;2.42;;;;;;;25.08;13.64;101686.59;4956350;28;19923;-78
2022/02/13 13:22:39;;;;;;;;;;;;;;;26.55;12.81;101685.69;4963326;28;20076;-79
2022/02/13 13:25:30;;;;;;;5.32;2.30;;;;;;;27.11;11.84;101690.38;4953719;28;20303;-79
2022/02/13 13:28:20;;;;;;;8.20;2.88;;;;;;;27.45;10.66;101676.63;4961969;28;20416;-79
2022/02/13 13:31:05;;;;;;;3.60;2.17;;;;;;;27.07;11.33;101678.41;4961867;28;20051;-78
2022/02/13 13:34:02;;;;;;;2.88;2.05;;;;;;;29.62;10.20;101676.97;4959622;28;20050;-79
2022/02/13 13:36:47;;;;;;;3.13;2.30;;;;;;;30.82;9.25;101684.59;4956497;29;20042;-79
2022/02/13 13:39:34;;;;;;;4.55;2.55;;;;;;;30.72;9.51;101668.75;4956171;29;20054;-78
2022/02/13 13:42:19;;;;;;;3.55;1.77;;;;;;;28.61;10.60;101652.56;4957627;28;20046;-79
2022/02/13 13:45:08;;;;;;;6.53;2.20;;;;;;;27.67;11.38;101663.38;4956425;28;20050;-78
2022/02/13 13:47:55;;;;;;;3.83;2.58;;;;;;;27.57;11.27;101651.06;4955069;28;20047;-79
2022/02/13 13:50:43;;;;;;;3.25;2.72;;;;;;;27.06;11.71;101635.72;4950941;28;20612;-78
2022/02/13 13:53:28;;;;;;;3.97;2.35;;;;;;;27.99;11.05;101639.53;4961997;28;20527;-78